»·PEaware :: N780MZ KVCV-KSBA

N780MZ :: KVCV-KSBA

FLIGHT INFORMATION

Flight Status: Arrived
Operator: Privately registered:
United States
More flights under this callsign
Pilot: Elliott T. (30246)
Aircraft: SOCATA TBM-900
(TBM9)
More flights by this aircraft type
Origin: KVCV Socal Logistics
United States
Destination: KSBA Santa Barbara Mun
United States
More flights between these airports :: More routes between these airports
Route:
File this flight plan on PilotEdge
Remarks:
Altitude:
(Current/Filed)
8,500ft
Speed:
(Current/Filed)
220kts
Departed: 26-Jul-20 05:02 PM
Arrived: 26-Jul-20 05:38 PM
Distance/Time
Traveled:
122nm/0:36
Distance/Time
To Go:
Arrived

Flight Plot

Page will automatically refresh every two minutes.


Map Options




Map Legend


Flown Route
Filed Route
Departure Airport
Arrival Airport
Navaid (VOR, NDB)
Fix

Horizontal Profiles

Position Reports

Time Latitude Longitude Heading Altitude Ground
Speed
26-Jul-20 16:45 34.589508 -117.373177 45 2865ft 0kts
26-Jul-20 16:46 34.589508 -117.373177 45 2865ft 0kts
26-Jul-20 16:47 34.589508 -117.373177 45 2865ft 0kts
26-Jul-20 16:48 34.589508 -117.373177 45 2865ft 0kts
26-Jul-20 16:49 34.589508 -117.373177 45 2865ft 0kts
26-Jul-20 16:50 34.589508 -117.373177 45 2865ft 0kts
26-Jul-20 16:51 34.589508 -117.373177 45 2865ft 0kts
26-Jul-20 16:52 34.589508 -117.373177 45 2865ft 0kts
26-Jul-20 16:53 34.589508 -117.373177 45 2865ft 0kts
26-Jul-20 16:54 34.589508 -117.373177 45 2865ft 0kts
26-Jul-20 16:55 34.589876 -117.373153 350 2864ft 2kts
26-Jul-20 16:56 34.592255 -117.373317 13 2863ft 8kts
26-Jul-20 16:57 34.593355 -117.370913 94 2857ft 9kts
26-Jul-20 16:58 34.593368 -117.368121 56 2857ft 8kts
26-Jul-20 16:59 34.596319 -117.367249 11 2848ft 11kts
26-Jul-20 16:59 34.598832 -117.366660 10 2843ft 7kts
26-Jul-20 17:01 34.600088 -117.367070 224 2841ft 9kts
26-Jul-20 17:02 34.580751 -117.390831 221 4062ft 144kts
26-Jul-20 17:02 34.556237 -117.418470 223 6238ft 147kts
26-Jul-20 17:03 34.526007 -117.457484 224 8470ft 170kts
26-Jul-20 17:04 34.519384 -117.523002 284 8535ft 251kts
26-Jul-20 17:05 34.547353 -117.604210 291 8520ft 264kts
26-Jul-20 17:06 34.577275 -117.686516 290 8508ft 266kts
26-Jul-20 17:07 34.605528 -117.769375 273 8480ft 262kts
26-Jul-20 17:08 34.613253 -117.856939 272 8479ft 259kts
26-Jul-20 17:09 34.620946 -117.944150 272 8482ft 258kts
26-Jul-20 17:10 34.628547 -118.030680 271 8477ft 259kts
26-Jul-20 17:11 34.627871 -118.118695 260 8483ft 264kts
26-Jul-20 17:12 34.622029 -118.208263 260 8478ft 266kts
26-Jul-20 17:13 34.616074 -118.298374 260 8474ft 266kts
26-Jul-20 17:14 34.610091 -118.388148 260 8472ft 267kts
26-Jul-20 17:15 34.603961 -118.478997 261 8474ft 271kts
26-Jul-20 17:16 34.597674 -118.571259 262 8474ft 275kts
26-Jul-20 17:17 34.591322 -118.663807 261 8479ft 274kts
26-Jul-20 17:18 34.584934 -118.755511 261 8481ft 269kts
26-Jul-20 17:19 34.578555 -118.845855 261 8476ft 266kts
26-Jul-20 17:20 34.572175 -118.935411 262 8468ft 266kts
26-Jul-20 17:21 34.565718 -119.025188 262 8464ft 266kts
26-Jul-20 17:22 34.559265 -119.114323 262 8466ft 265kts
26-Jul-20 17:23 34.552656 -119.204408 262 8469ft 265kts
26-Jul-20 17:24 34.546465 -119.288095 262 7685ft 224kts
26-Jul-20 17:25 34.520123 -119.343739 205 6641ft 197kts
26-Jul-20 17:26 34.478591 -119.384060 234 5626ft 195kts
26-Jul-20 17:27 34.448401 -119.438087 234 4627ft 191kts
26-Jul-20 17:28 34.419034 -119.489463 234 3607ft 180kts
26-Jul-20 17:29 34.390231 -119.538486 234 2592ft 176kts
26-Jul-20 17:30 34.376919 -119.595126 255 1581ft 175kts
26-Jul-20 17:31 34.375814 -119.649865 292 1000ft 156kts
26-Jul-20 17:32 34.392866 -119.694386 292 1003ft 137kts
26-Jul-20 17:33 34.408764 -119.735471 292 1013ft 133kts
26-Jul-20 17:34 34.423912 -119.775346 286 928ft 119kts
26-Jul-20 17:35 34.428418 -119.809021 267 546ft 95kts
26-Jul-20 17:36 34.427956 -119.834137 266 79ft 67kts
26-Jul-20 17:37 34.426729 -119.846222 142 13ft 12kts
26-Jul-20 17:38 34.426653 -119.842045 88 13ft 19kts
26-Jul-20 17:39 34.423508 -119.837386 168 11ft 21kts
26-Jul-20 17:40 34.419931 -119.836185 85 12ft 9kts
26-Jul-20 17:41 34.422955 -119.835822 11 10ft 10kts

Navigation Log

Ident Type
Flight plan parsing failed, navigation log unavailable